地図

経路データ

SID SEASON NUMBER BASIN SUBBASIN NAME ISO_TIME NATURE LAT LON WMO_WIND WMO_PRES WMO_AGENCY TRACK_TYPE DIST2LAND LANDFALL IFLAG USA_AGENCY USA_ATCF_ID USA_LAT USA_LON USA_RECORD USA_STATUS USA_WIND USA_PRES USA_SSHS USA_R34_NE USA_R34_SE USA_R34_SW USA_R34_NW USA_R50_NE USA_R50_SE USA_R50_SW USA_R50_NW USA_R64_NE USA_R64_SE USA_R64_SW USA_R64_NW USA_POCI USA_ROCI USA_RMW USA_EYE TOKYO_LAT TOKYO_LON TOKYO_GRADE TOKYO_WIND TOKYO_PRES TOKYO_R50_DIR TOKYO_R50_LONG TOKYO_R50_SHORT TOKYO_R30_DIR TOKYO_R30_LONG TOKYO_R30_SHORT TOKYO_LAND CMA_LAT CMA_LON CMA_CAT CMA_WIND CMA_PRES HKO_LAT HKO_LON HKO_CAT HKO_WIND HKO_PRES NEWDELHI_LAT NEWDELHI_LON NEWDELHI_GRADE NEWDELHI_WIND NEWDELHI_PRES NEWDELHI_CI NEWDELHI_DP NEWDELHI_POCI REUNION_LAT REUNION_LON REUNION_TYPE REUNION_WIND REUNION_PRES REUNION_TNUM REUNION_CI REUNION_RMW REUNION_R34_NE REUNION_R34_SE REUNION_R34_SW REUNION_R34_NW REUNION_R50_NE REUNION_R50_SE REUNION_R50_SW REUNION_R50_NW REUNION_R64_NE REUNION_R64_SE REUNION_R64_SW REUNION_R64_NW BOM_LAT BOM_LON BOM_TYPE BOM_WIND BOM_PRES BOM_TNUM BOM_CI BOM_RMW BOM_R34_NE BOM_R34_SE BOM_R34_SW BOM_R34_NW BOM_R50_NE BOM_R50_SE BOM_R50_SW BOM_R50_NW BOM_R64_NE BOM_R64_SE BOM_R64_SW BOM_R64_NW BOM_ROCI BOM_POCI BOM_EYE BOM_POS_METHOD BOM_PRES_METHOD NADI_LAT NADI_LON NADI_CAT NADI_WIND NADI_PRES WELLINGTON_LAT WELLINGTON_LON WELLINGTON_WIND WELLINGTON_PRES DS824_LAT DS824_LON DS824_STAGE DS824_WIND DS824_PRES TD9636_LAT TD9636_LON TD9636_STAGE TD9636_WIND TD9636_PRES TD9635_LAT TD9635_LON TD9635_WIND TD9635_PRES TD9635_ROCI NEUMANN_LAT NEUMANN_LON NEUMANN_CLASS NEUMANN_WIND NEUMANN_PRES MLC_LAT MLC_LON MLC_CLASS MLC_WIND MLC_PRES USA_GUST BOM_GUST BOM_GUST_PER REUNION_GUST REUNION_GUST_PER USA_SEAHGT USA_SEARAD_NE USA_SEARAD_SE USA_SEARAD_SW USA_SEARAD_NW STORM_SPEED STORM_DIR
1971183N11252 1971 61 EP MM CARLOTTA 1971-07-02 00:00:00 TS 10.5000 -108.500 25 hurdat_epa main 1025 1025 O________OO___ hurdat_epa EP031971 10.5000 -108.500 TD 25 -1 10.5000 -108.500 TC 25 10.5000 -108.500 1 8 269
1971183N11252 1971 61 EP MM CARLOTTA 1971-07-02 03:00:00 TS 10.4933 -108.893 main 1049 1049 P________PP___ EP031971 10.4952 -108.902 TD 25 -1 10.4952 -108.902 TC 25 10.4857 -108.854 1 8 270
1971183N11252 1971 61 EP MM CARLOTTA 1971-07-02 06:00:00 TS 10.4974 -109.287 25 hurdat_epa main 1073 1073 O________OP___ hurdat_epa EP031971 10.5000 -109.300 TD 25 -1 10.5000 -109.300 TC 25 10.4870 -109.236 1 8 272
1971183N11252 1971 61 EP MM CARLOTTA 1971-07-02 09:00:00 TS 10.5258 -109.699 main 1099 1099 P________PP___ EP031971 10.5273 -109.705 TD 25 -1 10.5273 -109.705 TC 25 10.5199 -109.675 1 9 277
1971183N11252 1971 61 EP MM CARLOTTA 1971-07-02 12:00:00 TS 10.6000 -110.200 25 hurdat_epa main 1123 1123 O________OO___ hurdat_epa EP031971 10.6000 -110.200 TD 25 -1 10.6000 -110.200 TC 25 10.6000 -110.200 2 12 280
1971183N11252 1971 61 EP MM CARLOTTA 1971-07-02 15:00:00 TS 10.7237 -110.861 main 1155 1151 P________PP___ EP031971 10.7201 -110.870 TD 32 -1 10.7201 -110.870 TC 32 10.7381 -110.827 2 14 283
1971183N11252 1971 61 EP MM CARLOTTA 1971-07-02 18:00:00 TS 10.9052 -111.584 40 hurdat_epa main 1181 1179 O________OP___ hurdat_epa EP031971 10.9000 -111.600 TS 40 0 10.9000 -111.600 TC 40 10.9258 -111.520 2 14 287
1971183N11252 1971 61 EP MM CARLOTTA 1971-07-02 21:00:00 TS 11.1380 -112.263 main 1212 1203 P________PP___ EP031971 11.1349 -112.272 TS 40 0 11.1349 -112.272 TC 40 11.1506 -112.227 2 14 291
1971183N11252 1971 61 EP MM CARLOTTA 1971-07-03 00:00:00 TS 11.4000 -112.900 40 hurdat_epa main 1231 1230 O________OO___ hurdat_epa EP031971 11.4000 -112.900 TS 40 0 11.4000 -112.900 TC 40 11.4000 -112.900 2 13 293
1971183N11252 1971 61 EP MM CARLOTTA 1971-07-03 03:00:00 TS 11.6428 -113.474 main 1261 1253 P________PP___ EP031971 11.6423 -113.473 TS 40 0 11.6423 -113.473 TC 40 11.6447 -113.481 2 12 295
1971183N11252 1971 61 EP MM CARLOTTA 1971-07-03 06:00:00 TS 11.9024 -114.004 40 hurdat_epa main 1275 1275 O________OP___ hurdat_epa EP031971 11.9000 -114.000 TS 40 0 11.9000 -114.000 TC 40 11.9118 -114.018 2 12 298
1971183N11252 1971 61 EP MM CARLOTTA 1971-07-03 09:00:00 TS 12.1935 -114.516 main 1288 1273 P________PP___ EP031971 12.1924 -114.515 TS 40 0 12.1924 -114.515 TC 40 12.1980 -114.521 2 11 302
1971183N11252 1971 61 EP MM CARLOTTA 1971-07-03 12:00:00 TS 12.5000 -115.000 40 hurdat_epa main 1278 1265 O________OO___ hurdat_epa EP031971 12.5000 -115.000 TS 40 0 12.5000 -115.000 TC 40 12.5000 -115.000 2 11 303
1971183N11252 1971 61 EP MM CARLOTTA 1971-07-03 15:00:00 TS 12.7935 -115.462 main 1270 1260 P________PP___ EP031971 12.7924 -115.458 TS 57 0 12.7924 -115.458 TC 57 12.7981 -115.480 2 11 304
1971183N11252 1971 61 EP MM CARLOTTA 1971-07-03 18:00:00 TS 13.1024 -115.908 75 hurdat_epa main 1261 1252 O________OP___ hurdat_epa EP031971 13.1000 -115.900 HU 75 1 13.1000 -115.900 TC 75 13.1121 -115.938 2 11 306
1971183N11252 1971 61 EP MM CARLOTTA 1971-07-03 21:00:00 TS 13.4370 -116.361 main 1259 1242 P________PP___ EP031971 13.4350 -116.358 HU 75 1 13.4350 -116.358 TC 75 13.4451 -116.377 2 11 309
1971183N11252 1971 61 EP MM CARLOTTA 1971-07-04 00:00:00 TS 13.8000 -116.800 75 hurdat_epa main 1245 1233 O________OO___ hurdat_epa EP031971 13.8000 -116.800 HU 75 1 13.8000 -116.800 TC 75 13.8000 -116.800 4 11 312
1971183N11252 1971 61 EP MM CARLOTTA 1971-07-04 03:00:00 TS 14.1920 -117.210 main 1233 1225 P________PP___ EP031971 14.1924 -117.208 HU 75 1 14.1924 -117.208 TC 75 14.1903 -117.219 4 11 316
1971183N11252 1971 61 EP MM CARLOTTA 1971-07-04 06:00:00 TS 14.5999 -117.605 75 hurdat_epa main 1225 1219 O________OP___ hurdat_epa EP031971 14.6000 -117.600 HU 75 1 14.6000 -117.600 TC 75 14.5996 -117.623 4 11 317
1971183N11252 1971 61 EP MM CARLOTTA 1971-07-04 09:00:00 TS 15.0078 -118.009 main 1219 1216 P________PP___ EP031971 15.0075 -118.008 HU 75 1 15.0075 -118.008 TC 75 15.0091 -118.015 4 11 316
1971183N11252 1971 61 EP MM CARLOTTA 1971-07-04 12:00:00 TS 15.4000 -118.400 75 hurdat_epa main 1216 1216 O________OO___ hurdat_epa EP031971 15.4000 -118.400 HU 75 1 15.4000 -118.400 TC 75 15.4000 -118.400 2 10 317
1971183N11252 1971 61 EP MM CARLOTTA 1971-07-04 15:00:00 TS 15.7660 -118.753 main 1215 1203 P________PP___ EP031971 15.7649 -118.750 HU 67 1 15.7649 -118.750 TC 67 15.7704 -118.766 2 10 316
1971183N11252 1971 61 EP MM CARLOTTA 1971-07-04 18:00:00 TS 16.1034 -119.106 60 980 hurdat_epa main 1206 1198 O________OP___ hurdat_epa EP031971 16.1000 -119.100 TS 60 980 0 16.1000 -119.100 TC 60 980 16.1168 -119.128 2 10 313
1971183N11252 1971 61 EP MM CARLOTTA 1971-07-04 21:00:00 TS 16.4239 -119.488 main 1205 1196 P________PP___ EP031971 16.4224 -119.485 TS 60 0 16.4224 -119.485 TC 60 16.4298 -119.501 2 10 308
1971183N11252 1971 61 EP MM CARLOTTA 1971-07-05 00:00:00 TS 16.7000 -119.900 60 hurdat_epa main 1206 1205 O________OO___ hurdat_epa EP031971 16.7000 -119.900 TS 60 0 16.7000 -119.900 TC 60 16.7000 -119.900 2 10 301
1971183N11252 1971 61 EP MM CARLOTTA 1971-07-05 03:00:00 TS 16.9232 -120.341 main 1218 1217 P________PP___ EP031971 16.9224 -120.335 TS 60 0 16.9224 -120.335 TC 60 16.9265 -120.363 2 10 295
1971183N11252 1971 61 EP MM CARLOTTA 1971-07-05 06:00:00 TS 17.1021 -120.810 60 hurdat_epa main 1239 1239 O________OP___ hurdat_epa EP031971 17.1000 -120.800 TS 60 0 17.1000 -120.800 TC 60 17.1103 -120.850 2 10 290
1971183N11252 1971 61 EP MM CARLOTTA 1971-07-05 09:00:00 TS 17.2589 -121.320 main 1262 1262 P________PP___ EP031971 17.2576 -121.315 TS 52 0 17.2576 -121.315 TC 52 17.2640 -121.338 2 10 287
1971183N11252 1971 61 EP MM CARLOTTA 1971-07-05 12:00:00 TS 17.4000 -121.800 45 hurdat_epa main 1293 1293 O________OO___ hurdat_epa EP031971 17.4000 -121.800 TS 45 0 17.4000 -121.800 TC 45 17.4000 -121.800 2 9 290
1971183N11252 1971 61 EP MM CARLOTTA 1971-07-05 15:00:00 TS 17.5552 -122.173 main 1311 1311 P________PP___ EP031971 17.5573 -122.165 TS 45 0 17.5573 -122.165 TC 45 17.5470 -122.204 2 7 293
1971183N11252 1971 61 EP MM CARLOTTA 1971-07-05 18:00:00 TS 17.6959 -122.516 45 994 hurdat_epa main 1329 1329 O________OP___ hurdat_epa EP031971 17.7000 -122.500 TS 45 994 0 17.7000 -122.500 TC 45 994 17.6793 -122.580 2 7 290
1971183N11252 1971 61 EP MM CARLOTTA 1971-07-05 21:00:00 TS 17.8054 -122.908 main 1355 1355 P________PP___ EP031971 17.8075 -122.900 TS 42 0 17.8075 -122.900 TC 42 17.7970 -122.941 2 8 285
1971183N11252 1971 61 EP MM CARLOTTA 1971-07-06 00:00:00 TS 17.9000 -123.300 40 hurdat_epa main 1382 1382 O________OO___ hurdat_epa EP031971 17.9000 -123.300 TS 40 0 17.9000 -123.300 TC 40 17.9000 -123.300 2 7 286
1971183N11252 1971 61 EP MM CARLOTTA 1971-07-06 03:00:00 TS 18.0036 -123.649 main 1394 1394 P________PP___ EP031971 18.0074 -123.650 TS 37 0 18.0074 -123.650 TC 37 17.9887 -123.647 2 7 286
1971183N11252 1971 61 EP MM CARLOTTA 1971-07-06 06:00:00 TS 18.0928 -124.000 35 hurdat_epa main 1413 1413 O________OP___ hurdat_epa EP031971 18.1000 -124.000 TS 35 0 18.1000 -124.000 TC 35 18.0640 -123.998 2 7 282
1971183N11252 1971 61 EP MM CARLOTTA 1971-07-06 09:00:00 TS 18.1463 -124.371 main 1440 1431 P________PP___ EP031971 18.1498 -124.370 TS 35 0 18.1498 -124.370 TC 35 18.1323 -124.375 2 8 278
1971183N11252 1971 61 EP MM CARLOTTA 1971-07-06 12:00:00 TS 18.2000 -124.800 35 hurdat_epa main 1459 1459 O________OO___ hurdat_epa EP031971 18.2000 -124.800 TS 35 0 18.2000 -124.800 TC 35 18.2000 -124.800 2 9 279
1971183N11252 1971 61 EP MM CARLOTTA 1971-07-06 15:00:00 TS 18.2917 -125.317 main 1486 1486 P________PP___ EP031971 18.3000 -125.327 TS 32 -1 18.3000 -125.327 TC 32 18.2584 -125.276 2 10 280
1971183N11252 1971 61 EP MM CARLOTTA 1971-07-06 18:00:00 TS 18.3839 -125.881 30 hurdat_epa main 1522 1522 O________OP___ hurdat_epa EP031971 18.4000 -125.900 TD 30 -1 18.4000 -125.900 TC 30 18.3193 -125.804 2 11 277
1971183N11252 1971 61 EP MM CARLOTTA 1971-07-06 21:00:00 TS 18.4268 -126.418 main 1560 1560 P________PP___ EP031971 18.4346 -126.428 TD 30 -1 18.4346 -126.428 TC 30 18.3956 -126.379 2 11 276
1971183N11252 1971 61 EP MM CARLOTTA 1971-07-07 00:00:00 TS 18.5000 -127.000 30 hurdat_epa main 1598 1598 O________OO___ hurdat_epa EP031971 18.5000 -127.000 TD 30 -1 18.5000 -127.000 TC 30 18.5000 -127.000 6 12 282
1971183N11252 1971 61 EP MM CARLOTTA 1971-07-07 03:00:00 TS 18.6804 -127.670 main 1639 1639 P________PP___ EP031971 18.6850 -127.677 TD 27 -1 18.6850 -127.677 TC 27 18.6620 -127.640 6 14 287
1971183N11252 1971 61 EP MM CARLOTTA 1971-07-07 06:00:00 TS 18.8898 -128.385 25 hurdat_epa main 1682 1682 O________OP___ hurdat_epa EP031971 18.9000 -128.400 TD 25 -1 18.9000 -128.400 TC 25 18.8492 -128.324 6 14 286
1971183N11252 1971 61 EP MM CARLOTTA 1971-07-07 09:00:00 TS 19.0590 -129.077 main 1727 1727 P________PP___ EP031971 19.0646 -129.085 TD 25 -1 19.0646 -129.085 TC 25 19.0367 -129.046 6 14 283
1971183N11252 1971 61 EP MM CARLOTTA 1971-07-07 12:00:00 TS 19.2000 -129.800 25 hurdat_epa main 1780 1780 O________OO___ hurdat_epa EP031971 19.2000 -129.800 TD 25 -1 19.2000 -129.800 TC 25 19.2000 -129.800 6 14 280
1971183N11252 1971 61 EP MM CARLOTTA 1971-07-07 15:00:00 TS 19.3117 -130.583 main 1843 1843 P________PP___ EP031971 19.3148 -130.585 TD 25 -1 19.3148 -130.585 TC 25 19.2994 -130.576 6 15 277
1971183N11252 1971 61 EP MM CARLOTTA 1971-07-07 18:00:00 TS 19.3944 -131.396 25 hurdat_epa main 1908 1908 O________OP___ hurdat_epa EP031971 19.4000 -131.400 TD 25 -1 19.4000 -131.400 TC 25 19.3720 -131.379 6 15 275
1971183N11252 1971 61 EP MM CARLOTTA 1971-07-07 21:00:00 TS 19.4464 -132.199 main 1979 1979 P________PP___ EP031971 19.4496 -132.200 TD 25 -1 19.4496 -132.200 TC 25 19.4336 -132.192 6 15 274
1971183N11252 1971 61 EP MM CARLOTTA 1971-07-08 00:00:00 TS 19.5000 -133.000 25 hurdat_epa main 2046 2046 O________OO___ hurdat_epa EP031971 19.5000 -133.000 TD 25 -1 19.5000 -133.000 TC 25 19.5000 -133.000 6 15 275
1971183N11252 1971 61 EP MM CARLOTTA 1971-07-08 03:00:00 TS 19.5905 -133.804 main 2108 2108 P________PP___ EP031971 19.5922 -133.807 TD 25 -1 19.5922 -133.807 TC 25 19.5835 -133.791 6 15 277
1971183N11252 1971 61 EP MM CARLOTTA 1971-07-08 06:00:00 TS 19.6964 -134.594 25 hurdat_epa main 2114 2041 O________OP___ hurdat_epa EP031971 19.7000 -134.600 TD 25 -1 19.7000 -134.600 TC 25 19.6821 -134.568 6 15 278
1971183N11252 1971 61 EP MM CARLOTTA 1971-07-08 09:00:00 TS 19.8003 -135.355 main 2030 1957 P________PP___ EP031971 19.8030 -135.360 TD 25 -1 19.8030 -135.360 TC 25 19.7896 -135.336 6 14 278
1971183N11252 1971 61 EP MM CARLOTTA 1971-07-08 12:00:00 TS 19.9000 -136.100 25 hurdat_epa main 1957 O________OO___ hurdat_epa EP031971 19.9000 -136.100 TD 25 -1 19.9000 -136.100 TC 25 19.9000 -136.100 6 14 278

IBTrACS Databaseについて

本データベースは、米国NOAAが公開する1842年以降の世界の熱帯低気圧のベストトラックデータアーカイブInternational Best Track Archive for Climate Stewardship (IBTrACS)を、ウェブで閲覧しやすい形式に変換したものです。

最終更新日:2021-12-01